createdAt,value
2023-04-27T00:00:30.418Z,93.35
2023-04-27T00:02:59.184Z,93.11
2023-04-27T00:05:27.735Z,92.03
2023-04-27T00:07:57.454Z,91.92
2023-04-27T00:10:25.874Z,92.37
2023-04-27T00:12:54.271Z,93.45
2023-04-27T00:15:23.147Z,91.27
2023-04-27T00:17:52.373Z,90.21
2023-04-27T00:20:21.664Z,89.02
2023-04-27T00:22:50.103Z,88.84
2023-04-27T00:25:18.485Z,89.43
2023-04-27T00:27:46.948Z,88.64
2023-04-27T00:30:15.462Z,87.62
2023-04-27T00:32:43.873Z,88.56
2023-04-27T00:35:12.757Z,87.88
2023-04-27T00:37:41.205Z,88.46
2023-04-27T00:40:10.167Z,87.32
2023-04-27T00:42:38.578Z,85.25
2023-04-27T00:45:07.899Z,86.05
2023-04-27T00:47:37.145Z,86.49
2023-04-27T00:50:09.502Z,87.68
2023-04-27T00:52:42.220Z,87.52
2023-04-27T00:55:10.864Z,87.30
2023-04-27T00:57:39.929Z,87.38
2023-04-27T01:00:09.150Z,87.00
2023-04-27T01:02:39.427Z,85.70
2023-04-27T01:05:14.182Z,85.85
2023-04-27T01:07:43.196Z,85.88
2023-04-27T01:10:11.928Z,85.64
2023-04-27T01:12:40.301Z,86.65
2023-04-27T01:15:09.441Z,85.36
2023-04-27T01:17:38.372Z,85.05
2023-04-27T01:20:09.616Z,85.81
2023-04-27T01:22:38.862Z,84.23
2023-04-27T01:25:08.926Z,83.45
2023-04-27T01:27:37.389Z,82.92
2023-04-27T01:30:06.256Z,81.90
2023-04-27T01:32:34.665Z,81.87
2023-04-27T01:35:03.105Z,83.86
2023-04-27T01:37:32.389Z,82.64
2023-04-27T01:40:00.802Z,80.16
2023-04-27T01:42:29.204Z,83.09
2023-04-27T01:44:57.703Z,79.44
2023-04-27T01:47:26.241Z,80.80
2023-04-27T01:49:54.646Z,81.61
2023-04-27T01:52:23.108Z,79.59
2023-04-27T01:54:51.574Z,80.57
2023-04-27T01:57:20.564Z,80.88
2023-04-27T01:59:49.038Z,78.64
2023-04-27T02:02:17.447Z,80.10
2023-04-27T02:04:46.233Z,79.57
2023-04-27T02:07:14.775Z,80.16
2023-04-27T02:09:43.178Z,79.83
2023-04-27T02:12:11.681Z,79.25
2023-04-27T02:14:40.054Z,78.61
2023-04-27T02:17:08.429Z,79.30
2023-04-27T02:19:37.389Z,78.93
2023-04-27T02:22:05.768Z,79.82
2023-04-27T02:24:34.212Z,79.68
2023-04-27T02:27:02.817Z,80.57
2023-04-27T02:29:32.621Z,79.13
2023-04-27T02:32:01.801Z,79.56
2023-04-27T02:34:30.345Z,80.42
2023-04-27T02:36:58.820Z,80.33
2023-04-27T02:39:28.337Z,78.76
2023-04-27T02:41:56.798Z,79.15
2023-04-27T02:44:25.215Z,76.51
2023-04-27T02:46:54.070Z,76.16
2023-04-27T02:49:22.660Z,77.63
2023-04-27T02:51:51.081Z,77.61
2023-04-27T02:54:19.522Z,78.53
2023-04-27T02:56:48.037Z,77.06
2023-04-27T02:59:16.578Z,76.22
2023-04-27T03:01:45.145Z,76.24
2023-04-27T03:04:15.698Z,74.50
2023-04-27T03:06:44.299Z,76.49
2023-04-27T03:09:13.860Z,75.43
2023-04-27T03:11:42.532Z,77.33
2023-04-27T03:14:10.980Z,76.91
2023-04-27T03:16:39.409Z,75.31
2023-04-27T03:19:08.220Z,75.56
2023-04-27T03:21:37.352Z,76.65
2023-04-27T03:24:06.087Z,75.78
2023-04-27T03:26:34.479Z,75.25
2023-04-27T03:29:02.880Z,76.09
2023-04-27T03:31:31.418Z,75.27
2023-04-27T03:34:00.018Z,72.97
2023-04-27T03:36:28.452Z,75.10
2023-04-27T03:38:56.833Z,75.70
2023-04-27T03:41:25.226Z,74.03
2023-04-27T03:43:54.435Z,74.92
2023-04-27T03:46:22.946Z,72.73
2023-04-27T03:48:51.738Z,74.29
2023-04-27T03:51:20.167Z,73.37
2023-04-27T03:53:48.659Z,74.14
2023-04-27T03:56:17.263Z,71.38
2023-04-27T03:58:45.658Z,71.95
2023-04-27T04:01:14.043Z,73.70
2023-04-27T04:03:44.345Z,72.93
2023-04-27T04:06:13.056Z,71.79
2023-04-27T04:08:41.479Z,72.12
2023-04-27T04:11:10.017Z,74.39
2023-04-27T04:13:38.393Z,73.41
2023-04-27T04:16:08.827Z,68.83
2023-04-27T04:18:38.208Z,72.15
2023-04-27T04:21:06.845Z,72.00
2023-04-27T04:23:35.212Z,71.46
2023-04-27T04:26:03.586Z,70.33
2023-04-27T04:28:32.435Z,71.16
2023-04-27T04:31:03.065Z,70.23
2023-04-27T04:33:32.183Z,71.04
2023-04-27T04:36:01.335Z,67.18
2023-04-27T04:38:30.201Z,67.96
2023-04-27T04:40:58.750Z,69.17
2023-04-27T04:43:27.800Z,64.83
2023-04-27T04:45:56.413Z,63.49
2023-04-27T04:48:25.100Z,67.96
2023-04-27T04:50:53.875Z,70.01
2023-04-27T04:53:22.247Z,68.01
2023-04-27T04:55:50.612Z,66.62
2023-04-27T04:58:19.038Z,66.27
2023-04-27T05:00:47.505Z,65.59
2023-04-27T05:03:15.988Z,67.90
2023-04-27T05:05:44.482Z,69.94
2023-04-27T05:08:12.952Z,63.08
2023-04-27T05:10:41.297Z,67.93
2023-04-27T05:13:09.675Z,68.04
2023-04-27T05:15:38.957Z,67.79
2023-04-27T05:18:07.396Z,63.72
2023-04-27T05:20:40.226Z,66.49
2023-04-27T05:23:08.599Z,63.53
2023-04-27T05:25:43.473Z,63.47
2023-04-27T05:28:12.381Z,67.29
2023-04-27T05:30:40.829Z,65.49
2023-04-27T05:33:09.400Z,64.16
2023-04-27T05:35:37.838Z,61.88
2023-04-27T05:38:06.421Z,62.88
2023-04-27T05:40:34.827Z,65.91
2023-04-27T05:43:06.279Z,63.90
2023-04-27T05:45:34.737Z,61.03
2023-04-27T05:48:03.156Z,62.67
2023-04-27T05:50:31.583Z,62.86
2023-04-27T05:52:59.990Z,62.10
2023-04-27T05:55:28.375Z,60.92
2023-04-27T05:58:07.117Z,65.23
2023-04-27T06:00:37.919Z,61.62
2023-04-27T06:03:06.651Z,61.81
2023-04-27T06:05:35.511Z,61.03
2023-04-27T06:08:04.168Z,62.26
2023-04-27T06:10:32.638Z,58.33
2023-04-27T06:13:01.640Z,61.64
2023-04-27T06:15:30.996Z,62.21
2023-04-27T06:17:59.512Z,60.56
2023-04-27T06:20:28.465Z,59.63
2023-04-27T06:22:58.883Z,62.71
2023-04-27T06:25:29.419Z,57.30
2023-04-27T06:27:58.657Z,59.33
2023-04-27T06:30:27.183Z,61.29
2023-04-27T06:32:55.711Z,56.36
2023-04-27T06:35:24.501Z,61.54
2023-04-27T06:37:53.108Z,63.14
2023-04-27T06:40:21.703Z,61.42
2023-04-27T06:42:50.104Z,59.65
2023-04-27T06:45:18.566Z,59.98
2023-04-27T06:47:47.606Z,61.70
2023-04-27T06:50:17.391Z,58.72
2023-04-27T06:52:45.801Z,56.29
2023-04-27T06:55:14.216Z,60.22
2023-04-27T06:57:42.982Z,65.79
2023-04-27T07:00:14.264Z,63.94
2023-04-27T07:02:42.754Z,63.33
2023-04-27T07:05:11.296Z,60.93
2023-04-27T07:07:39.718Z,61.91
2023-04-27T07:10:09.079Z,60.65
2023-04-27T07:12:38.638Z,62.10
2023-04-27T07:15:08.205Z,57.51
2023-04-27T07:17:36.802Z,55.73
2023-04-27T07:20:07.120Z,60.84
2023-04-27T07:22:35.691Z,59.61
2023-04-27T07:25:04.944Z,57.46
2023-04-27T07:27:33.992Z,57.87
2023-04-27T07:30:02.428Z,62.64
2023-04-27T07:32:30.980Z,64.56
2023-04-27T07:34:59.737Z,64.92
2023-04-27T07:37:28.171Z,65.20
2023-04-27T07:39:56.747Z,65.80
2023-04-27T07:42:25.975Z,64.29
2023-04-27T07:44:55.201Z,64.62
2023-04-27T07:47:23.839Z,67.23
2023-04-27T07:49:53.933Z,65.77
2023-04-27T07:52:22.700Z,65.33
2023-04-27T07:54:51.477Z,66.72
2023-04-27T07:57:19.849Z,66.64
2023-04-27T07:59:48.495Z,66.84
2023-04-27T08:02:20.066Z,67.55
2023-04-27T08:04:49.740Z,69.69
2023-04-27T08:07:19.731Z,70.30
2023-04-27T08:09:48.353Z,68.47
2023-04-27T08:12:16.884Z,68.84
2023-04-27T08:14:45.271Z,68.21
2023-04-27T08:17:13.697Z,70.84
2023-04-27T08:19:42.544Z,69.53
2023-04-27T08:22:10.961Z,67.40
2023-04-27T08:24:39.351Z,69.55
2023-04-27T08:27:08.344Z,67.81
2023-04-27T08:29:37.135Z,67.29
2023-04-27T08:32:06.869Z,69.85
2023-04-27T08:34:35.279Z,69.70
2023-04-27T08:37:05.302Z,69.69
2023-04-27T08:39:33.724Z,71.74
2023-04-27T08:42:02.255Z,73.05
2023-04-27T08:44:31.228Z,71.04
2023-04-27T08:47:00.101Z,71.64
2023-04-27T08:49:28.524Z,70.90
2023-04-27T08:51:57.189Z,71.76
2023-04-27T08:54:25.574Z,71.66
2023-04-27T08:56:53.975Z,71.26
2023-04-27T08:59:22.380Z,73.50
2023-04-27T09:01:52.029Z,74.72
2023-04-27T09:04:20.792Z,75.86
2023-04-27T09:06:50.685Z,76.04
2023-04-27T09:09:26.137Z,77.03
2023-04-27T09:11:54.585Z,77.62
2023-04-27T09:14:25.017Z,76.25
2023-04-27T09:17:02.843Z,75.90
2023-04-27T09:19:32.547Z,74.71
2023-04-27T09:22:09.217Z,74.29
2023-04-27T09:24:38.710Z,75.64
2023-04-27T09:27:09.845Z,75.18
2023-04-27T09:29:39.873Z,75.61
2023-04-27T09:32:18.033Z,76.54
2023-04-27T09:34:46.627Z,76.99
2023-04-27T09:37:16.049Z,75.93
2023-04-27T09:39:44.835Z,75.76
2023-04-27T09:42:14.301Z,76.14
2023-04-27T09:44:42.749Z,78.21
2023-04-27T09:47:12.345Z,76.21
2023-04-27T09:49:40.843Z,75.23
2023-04-27T09:52:09.259Z,75.79
2023-04-27T09:54:38.598Z,75.32
2023-04-27T09:57:34.502Z,74.52
2023-04-27T10:00:17.842Z,73.95
2023-04-27T10:03:04.717Z,74.27
2023-04-27T10:05:52.443Z,75.00
2023-04-27T10:08:22.036Z,73.47
2023-04-27T10:10:51.502Z,74.39
2023-04-27T10:13:28.068Z,74.89
2023-04-27T10:15:56.506Z,74.66
2023-04-27T10:18:32.379Z,75.26
2023-04-27T10:21:21.146Z,76.62
2023-04-27T10:23:52.221Z,74.71
2023-04-27T10:26:25.635Z,76.08
2023-04-27T10:29:07.991Z,77.61
2023-04-27T10:31:37.175Z,79.04
2023-04-27T10:34:13.069Z,80.24
2023-04-27T10:36:42.199Z,80.52
2023-04-27T10:39:30.064Z,80.06
2023-04-27T10:42:09.132Z,80.38
2023-04-27T10:44:39.653Z,81.00
2023-04-27T10:47:16.638Z,79.95
2023-04-27T10:49:45.101Z,78.59
2023-04-27T10:52:14.674Z,75.97
2023-04-27T10:54:47.840Z,76.81
2023-04-27T10:57:17.377Z,78.90
2023-04-27T10:59:54.897Z,78.73
2023-04-27T11:02:30.663Z,79.84
2023-04-27T11:04:59.685Z,80.83
2023-04-27T11:07:30.003Z,81.99
2023-04-27T11:09:58.421Z,83.03
2023-04-27T11:12:26.989Z,82.42
2023-04-27T11:15:01.778Z,81.60
2023-04-27T11:17:34.085Z,80.59
2023-04-27T11:20:02.600Z,79.94
2023-04-27T11:22:31.305Z,79.13
2023-04-27T11:24:59.827Z,77.32
2023-04-27T11:27:38.661Z,78.18
2023-04-27T11:30:08.603Z,78.96
2023-04-27T11:32:37.403Z,77.94
2023-04-27T11:35:06.106Z,77.50
2023-04-27T11:37:34.581Z,77.38
2023-04-27T11:40:03.003Z,77.78
2023-04-27T11:42:33.104Z,77.41
2023-04-27T11:45:03.747Z,78.15
2023-04-27T11:47:33.775Z,79.15
2023-04-27T11:50:08.570Z,78.59
2023-04-27T11:52:38.871Z,79.99
2023-04-27T11:55:09.885Z,80.23
2023-04-27T11:57:38.481Z,81.74
2023-04-27T12:00:15.382Z,81.38
2023-04-27T12:02:45.394Z,82.04
2023-04-27T12:05:14.711Z,81.77
2023-04-27T12:07:46.488Z,83.04
2023-04-27T12:10:14.917Z,83.35
2023-04-27T12:12:43.953Z,84.47
2023-04-27T12:15:12.870Z,84.62
2023-04-27T12:17:41.782Z,85.08
2023-04-27T12:20:10.978Z,84.25
2023-04-27T12:22:39.736Z,84.01
2023-04-27T12:25:08.381Z,84.33
2023-04-27T12:27:36.815Z,85.40
2023-04-27T12:30:05.813Z,85.34
2023-04-27T12:32:34.230Z,85.01
2023-04-27T12:35:02.692Z,85.75
2023-04-27T12:37:31.068Z,85.90
2023-04-27T12:39:59.511Z,85.08
2023-04-27T12:42:28.163Z,85.00
2023-04-27T12:44:56.525Z,85.37
2023-04-27T12:49:56.317Z,86.48
2023-04-27T12:52:25.578Z,85.10
2023-04-27T12:54:58.653Z,83.22
2023-04-27T12:57:27.666Z,83.50
2023-04-27T12:59:56.044Z,79.54
2023-04-27T13:02:24.738Z,78.23
2023-04-27T13:04:53.733Z,79.88
2023-04-27T13:07:22.179Z,77.26
2023-04-27T13:09:50.681Z,77.87
2023-04-27T13:12:19.160Z,77.64
2023-04-27T13:14:47.616Z,75.13
2023-04-27T13:17:15.997Z,76.48
2023-04-27T13:19:44.441Z,77.11
2023-04-27T13:22:13.083Z,77.43
2023-04-27T13:24:43.052Z,76.66
2023-04-27T13:27:11.507Z,76.70
2023-04-27T13:29:39.875Z,76.86
2023-04-27T13:32:08.293Z,77.17
2023-04-27T13:34:36.913Z,77.65
2023-04-27T13:37:05.368Z,77.07
2023-04-27T13:39:34.111Z,76.73
2023-04-27T13:42:02.999Z,75.60
2023-04-27T13:44:32.655Z,76.77
2023-04-27T13:47:01.172Z,77.13
2023-04-27T13:49:29.582Z,75.45
2023-04-27T13:52:01.863Z,75.59
2023-04-27T13:54:30.389Z,76.73
2023-04-27T13:56:58.761Z,75.28
2023-04-27T13:59:27.176Z,75.72
2023-04-27T14:01:56.532Z,75.97
2023-04-27T14:04:25.022Z,76.53
2023-04-27T14:06:53.498Z,74.32
2023-04-27T14:09:22.303Z,75.72
2023-04-27T14:11:56.578Z,74.83
2023-04-27T14:14:25.820Z,75.20
2023-04-27T14:16:54.942Z,75.57
2023-04-27T14:19:23.449Z,74.81
2023-04-27T14:21:51.898Z,74.71
2023-04-27T14:24:20.681Z,75.39
2023-04-27T14:26:50.483Z,74.76
2023-04-27T14:29:19.913Z,75.37
2023-04-27T14:31:49.872Z,75.09
2023-04-27T14:34:20.951Z,76.21
2023-04-27T14:36:50.059Z,76.23
2023-04-27T14:39:18.641Z,75.87
2023-04-27T14:41:47.064Z,75.60
2023-04-27T14:44:15.493Z,76.91
2023-04-27T14:46:43.979Z,77.07
2023-04-27T14:49:12.797Z,76.56
2023-04-27T14:51:43.402Z,77.15
2023-04-27T14:54:12.277Z,75.17
2023-04-27T14:56:40.891Z,76.68
2023-04-27T14:59:09.362Z,76.15
2023-04-27T15:01:38.107Z,76.93
2023-04-27T15:04:07.516Z,77.28
2023-04-27T15:06:35.960Z,77.52
2023-04-27T15:09:05.592Z,77.81
2023-04-27T15:11:34.195Z,78.79
2023-04-27T15:14:02.548Z,78.44
2023-04-27T15:16:31.000Z,78.47
2023-04-27T15:18:59.487Z,78.22
2023-04-27T15:21:27.899Z,77.75
2023-04-27T15:23:56.320Z,78.50
2023-04-27T15:26:24.751Z,79.29
2023-04-27T15:28:53.114Z,79.30
2023-04-27T15:31:22.213Z,78.46
2023-04-27T15:33:50.613Z,78.24
2023-04-27T15:36:19.048Z,79.32
2023-04-27T15:38:47.661Z,78.97
2023-04-27T15:41:16.048Z,79.41
2023-04-27T15:43:44.421Z,79.09
2023-04-27T15:46:12.905Z,79.86
2023-04-27T15:48:41.291Z,78.97
2023-04-27T15:51:10.393Z,78.88
2023-04-27T15:53:40.520Z,79.69
2023-04-27T15:56:09.044Z,79.92
2023-04-27T15:58:37.478Z,80.32
2023-04-27T16:01:06.250Z,81.28
2023-04-27T16:03:35.784Z,81.05
2023-04-27T16:06:04.339Z,80.77
2023-04-27T16:08:33.464Z,80.81
2023-04-27T16:11:02.145Z,81.92
2023-04-27T16:13:30.651Z,82.15
2023-04-27T16:15:59.053Z,82.78
2023-04-27T16:18:27.481Z,82.29
2023-04-27T16:20:55.880Z,83.16
2023-04-27T16:23:25.372Z,82.00
2023-04-27T16:25:53.846Z,83.16
2023-04-27T16:28:22.281Z,82.73
2023-04-27T16:30:50.740Z,82.04
2023-04-27T16:33:20.204Z,82.38
2023-04-27T16:35:48.946Z,81.90
2023-04-27T16:38:17.563Z,83.91
2023-04-27T16:40:46.002Z,85.00
2023-04-27T16:43:14.415Z,84.66
2023-04-27T16:45:42.960Z,84.46
2023-04-27T16:48:14.228Z,84.02
2023-04-27T16:50:43.046Z,84.15
2023-04-27T16:53:20.553Z,84.14
2023-04-27T16:55:49.395Z,84.14
2023-04-27T16:58:17.768Z,83.81
2023-04-27T17:00:46.230Z,83.85
2023-04-27T17:03:14.848Z,84.48
2023-04-27T17:05:43.389Z,84.74
2023-04-27T17:08:11.999Z,84.71
2023-04-27T17:10:40.640Z,83.60
2023-04-27T17:13:11.588Z,83.91
2023-04-27T17:15:40.375Z,84.24
2023-04-27T17:18:10.698Z,84.40
2023-04-27T17:20:40.977Z,84.44
2023-04-27T17:23:10.690Z,86.19
2023-04-27T17:25:39.117Z,86.11
2023-04-27T17:28:07.620Z,85.10
2023-04-27T17:30:36.118Z,85.07
2023-04-27T17:33:04.911Z,85.05
2023-04-27T17:35:33.506Z,87.31
2023-04-27T17:38:02.040Z,88.14
2023-04-27T17:40:31.934Z,88.75
2023-04-27T17:43:01.188Z,89.48
2023-04-27T17:45:30.316Z,90.43
2023-04-27T17:48:01.990Z,89.81
2023-04-27T17:50:31.774Z,88.84
2023-04-27T17:53:00.398Z,88.39
2023-04-27T17:55:28.856Z,89.79
2023-04-27T17:57:57.338Z,89.10
2023-04-27T18:00:26.011Z,90.88
2023-04-27T18:02:54.534Z,91.11
2023-04-27T18:05:23.159Z,90.31
2023-04-27T18:07:51.618Z,89.02
2023-04-27T18:10:20.061Z,89.46
2023-04-27T18:12:48.525Z,90.16
2023-04-27T18:15:17.014Z,91.08
2023-04-27T18:17:46.038Z,92.10
2023-04-27T18:20:17.475Z,93.96
2023-04-27T18:22:45.800Z,92.60
2023-04-27T18:25:14.331Z,90.01
2023-04-27T18:27:44.802Z,88.67
2023-04-27T18:30:13.504Z,89.73
2023-04-27T18:32:42.061Z,92.25
2023-04-27T18:35:10.882Z,91.25
2023-04-27T18:37:39.443Z,92.06
2023-04-27T18:40:08.561Z,92.48
2023-04-27T18:42:36.830Z,93.04
2023-04-27T18:45:05.485Z,93.46
2023-04-27T18:47:33.774Z,93.27
2023-04-27T18:50:02.071Z,93.54
2023-04-27T18:52:30.613Z,94.18
2023-04-27T18:54:58.949Z,93.88
2023-04-27T18:57:27.422Z,92.81
2023-04-27T18:59:55.821Z,93.48
2023-04-27T19:02:26.269Z,93.73
2023-04-27T19:05:11.631Z,93.64
2023-04-27T19:07:42.039Z,93.37
2023-04-27T19:10:11.007Z,93.11
2023-04-27T19:12:39.517Z,93.84
2023-04-27T19:15:08.157Z,95.33
2023-04-27T19:17:36.744Z,96.87
2023-04-27T19:20:05.544Z,97.92
2023-04-27T19:22:36.172Z,97.20
2023-04-27T19:25:11.509Z,96.43
2023-04-27T19:27:41.150Z,97.36
2023-04-27T19:30:11.368Z,97.88
2023-04-27T19:32:40.521Z,97.11
2023-04-27T19:35:12.320Z,96.96
2023-04-27T19:37:40.977Z,97.41
2023-04-27T19:40:10.528Z,97.90
2023-04-27T19:42:39.069Z,97.55
2023-04-27T19:45:08.480Z,98.09
2023-04-27T19:47:37.327Z,98.24
2023-04-27T19:50:06.451Z,98.05
2023-04-27T19:52:34.925Z,97.31
2023-04-27T19:55:03.298Z,96.51
2023-04-27T19:57:31.804Z,96.98
2023-04-27T20:00:00.311Z,98.35
2023-04-27T20:02:29.188Z,98.28
2023-04-27T20:04:58.933Z,98.12
2023-04-27T20:07:27.793Z,98.02
2023-04-27T20:09:56.272Z,98.93
2023-04-27T20:12:47.484Z,99.46
2023-04-27T20:15:14.010Z,98.87
2023-04-27T20:17:43.245Z,98.39
2023-04-27T20:20:12.822Z,99.10
2023-04-27T20:22:41.694Z,98.77
2023-04-27T20:25:10.885Z,99.22
2023-04-27T20:27:40.044Z,99.05
2023-04-27T20:30:09.171Z,98.40
2023-04-27T20:32:40.387Z,97.66
2023-04-27T20:35:14.069Z,96.71
2023-04-27T20:37:44.439Z,96.53
2023-04-27T20:40:17.790Z,97.07
2023-04-27T20:42:46.667Z,95.87
2023-04-27T20:45:15.071Z,95.47
2023-04-27T20:47:43.601Z,96.99
2023-04-27T20:50:13.074Z,97.73
2023-04-27T20:52:41.614Z,99.34
2023-04-27T20:55:10.465Z,99.74
2023-04-27T20:57:38.892Z,99.53
2023-04-27T21:00:10.685Z,97.89
2023-04-27T21:02:39.262Z,96.25
2023-04-27T21:05:07.695Z,95.16
2023-04-27T21:07:36.175Z,95.44
2023-04-27T21:10:07.156Z,95.06
2023-04-27T21:12:35.792Z,96.73
2023-04-27T21:15:04.356Z,97.53
2023-04-27T21:17:33.610Z,97.79
2023-04-27T21:20:02.052Z,97.07
2023-04-27T21:22:30.534Z,98.27
2023-04-27T21:24:59.004Z,98.76
2023-04-27T21:27:28.932Z,99.25
2023-04-27T21:30:00.561Z,99.57
2023-04-27T21:32:29.221Z,99.52
2023-04-27T21:34:57.918Z,98.12
2023-04-27T21:37:27.098Z,96.31
2023-04-27T21:39:55.571Z,97.70
2023-04-27T21:42:24.469Z,98.69
2023-04-27T21:44:52.932Z,98.32
2023-04-27T21:47:21.434Z,96.76
2023-04-27T21:49:51.844Z,96.22
2023-04-27T21:52:22.466Z,95.28
2023-04-27T21:54:50.970Z,96.56
2023-04-27T21:57:20.121Z,96.83
2023-04-27T21:59:48.774Z,97.81
2023-04-27T22:02:17.221Z,96.78
2023-04-27T22:04:46.381Z,95.17
2023-04-27T22:07:15.203Z,95.49
2023-04-27T22:09:43.608Z,95.43
2023-04-27T22:12:12.057Z,95.78
2023-04-27T22:14:40.469Z,98.16
2023-04-27T22:17:08.859Z,99.61
2023-04-27T22:19:37.283Z,99.61
2023-04-27T22:22:05.760Z,99.85
2023-04-27T22:24:34.680Z,96.95
2023-04-27T22:27:03.229Z,96.74
2023-04-27T22:29:31.882Z,97.42
2023-04-27T22:32:00.605Z,97.78
2023-04-27T22:34:29.230Z,98.65
2023-04-27T22:36:58.236Z,98.83
2023-04-27T22:39:26.813Z,99.15
2023-04-27T22:41:55.197Z,96.92
2023-04-27T22:44:23.684Z,96.35
2023-04-27T22:46:52.173Z,96.27
2023-04-27T22:49:20.592Z,95.14
2023-04-27T22:51:49.471Z,95.65
2023-04-27T22:54:18.111Z,93.75
2023-04-27T22:56:46.853Z,94.16
2023-04-27T22:59:15.294Z,94.39
2023-04-27T23:01:43.639Z,96.03
2023-04-27T23:04:12.103Z,98.45
2023-04-27T23:06:40.797Z,99.59
2023-04-27T23:09:09.326Z,100.00
2023-04-27T23:11:37.752Z,100.00
2023-04-27T23:14:06.168Z,100.00
2023-04-27T23:16:34.714Z,100.00
2023-04-27T23:19:03.220Z,100.00
2023-04-27T23:21:32.816Z,100.00
2023-04-27T23:24:01.180Z,100.00
2023-04-27T23:26:30.584Z,100.00
2023-04-27T23:28:59.737Z,100.00
2023-04-27T23:31:28.638Z,99.05
2023-04-27T23:33:57.059Z,99.75
2023-04-27T23:36:25.456Z,100.00
2023-04-27T23:38:53.787Z,99.71
2023-04-27T23:41:22.826Z,99.42
2023-04-27T23:43:51.194Z,100.00
2023-04-27T23:46:19.562Z,100.00
2023-04-27T23:48:48.598Z,96.95
2023-04-27T23:51:17.373Z,95.93
2023-04-27T23:53:46.341Z,96.24
2023-04-27T23:56:21.377Z,98.27
2023-04-27T23:58:50.283Z,99.07
